Time;durP1;ratioP1;P1;durP2;ratioP2;P2;SDS_P1;SDS_P2;PMS_P1;PMS_P2;Temp;Humidity;BMP_temperature;BMP_pressure;BME280_temperature;BME280_humidity;BME280_pressure;Samples;Min_cycle;Max_cycle;Signal;HPM_P1;HPM_P2
2022/03/13 00:02:00;;;;;;;11.47;7.00;;;;;;;;;;5034709;28;20630;-75
2022/03/13 00:04:25;;;;;;;13.73;8.07;;;;;;;;;;5039305;28;20945;-76
2022/03/13 00:06:51;;;;;;;7.37;6.60;;;;;;;;;;5037325;28;20831;-75
2022/03/13 00:09:19;;;;;;;9.27;7.37;;;;;;;;;;5037672;28;20183;-75
2022/03/13 00:11:45;;;;;;;7.97;6.70;;;;;;;;;;5038437;28;20922;-76
2022/03/13 00:14:10;;;;;;;10.10;8.10;;;;;;;;;;5038454;28;20426;-76
2022/03/13 00:16:37;;;;;;;8.80;6.63;;;;;;;;;;5041255;28;20450;-75
2022/03/13 00:19:02;;;;;;;7.63;6.73;;;;;;;;;;5039949;28;20203;-75
2022/03/13 00:21:28;;;;;;;9.40;6.33;;;;;;;;;;5039807;28;20484;-75
2022/03/13 00:23:54;;;;;;;9.33;7.30;;;;;;;;;;5040304;28;20187;-75
2022/03/13 00:26:19;;;;;;;8.53;7.60;;;;;;;;;;5036390;28;20450;-76
2022/03/13 00:28:45;;;;;;;9.47;7.40;;;;;;;;;;5035518;28;20184;-75
2022/03/13 00:31:11;;;;;;;11.60;7.67;;;;;;;;;;5036005;28;20202;-75
2022/03/13 00:33:37;;;;;;;10.33;7.20;;;;;;;;;;5037406;28;20441;-75
2022/03/13 00:36:03;;;;;;;11.53;6.20;;;;;;;;;;5037498;28;20446;-75
2022/03/13 00:38:28;;;;;;;7.67;6.53;;;;;;;;;;5038751;28;20545;-75
2022/03/13 00:40:55;;;;;;;9.00;7.00;;;;;;;;;;5036750;28;20495;-75
2022/03/13 00:43:21;;;;;;;9.90;7.13;;;;;;;;;;5034456;28;20207;-75
2022/03/13 00:45:46;;;;;;;7.40;6.23;;;;;;;;;;5038188;28;20481;-75
2022/03/13 00:48:12;;;;;;;9.13;6.67;;;;;;;;;;5040458;28;20444;-75
2022/03/13 00:50:37;;;;;;;13.30;6.47;;;;;;;;;;5032980;28;20604;-75
2022/03/13 00:53:03;;;;;;;7.20;6.30;;;;;;;;;;5039561;28;20466;-75
2022/03/13 00:55:28;;;;;;;13.03;7.87;;;;;;;;;;5036177;28;20303;-75
2022/03/13 00:57:54;;;;;;;8.37;6.43;;;;;;;;;;5034996;28;20202;-75
2022/03/13 01:00:19;;;;;;;8.13;6.57;;;;;;;;;;5036884;28;20239;-76
2022/03/13 01:02:45;;;;;;;8.10;6.70;;;;;;;;;;5031202;28;20512;-76
2022/03/13 01:05:10;;;;;;;7.93;6.20;;;;;;;;;;5035011;28;20649;-75
2022/03/13 01:07:36;;;;;;;11.23;6.50;;;;;;;;;;5038325;28;20204;-75
2022/03/13 01:10:02;;;;;;;7.00;6.30;;;;;;;;;;5035452;28;20183;-75
2022/03/13 01:12:27;;;;;;;7.20;6.30;;;;;;;;;;5037570;28;20430;-75
2022/03/13 01:14:53;;;;;;;7.57;6.27;;;;;;;;;;5036083;28;20399;-76
2022/03/13 01:17:19;;;;;;;11.50;7.07;;;;;;;;;;5041516;28;20575;-76
2022/03/13 01:19:44;;;;;;;9.63;6.47;;;;;;;;;;5038316;28;20187;-75
2022/03/13 01:22:11;;;;;;;9.67;6.70;;;;;;;;;;5037924;28;21013;-76
2022/03/13 01:24:44;;;;;;;8.40;6.30;;;;;;;;;;5035649;28;20180;-75
2022/03/13 01:27:10;;;;;;;10.33;5.97;;;;;;;;;;5033506;28;20441;-75
2022/03/13 01:29:36;;;;;;;10.33;7.07;;;;;;;;;;5039366;28;20421;-76
2022/03/13 01:32:01;;;;;;;10.20;7.47;;;;;;;;;;5033750;28;20542;-76
2022/03/13 01:34:26;;;;;;;9.33;6.40;;;;;;;;;;5035710;28;20180;-76
2022/03/13 01:36:52;;;;;;;9.30;7.10;;;;;;;;;;5035262;28;20210;-75
2022/03/13 01:39:17;;;;;;;7.03;6.30;;;;;;;;;;5033035;28;20255;-75
2022/03/13 01:41:42;;;;;;;13.13;7.30;;;;;;;;;;5035795;28;20282;-75
2022/03/13 01:44:07;;;;;;;8.53;7.00;;;;;;;;;;5036082;28;20172;-75
2022/03/13 01:46:33;;;;;;;11.43;7.60;;;;;;;;;;5038761;28;20223;-75
2022/03/13 01:49:04;;;;;;;9.97;7.20;;;;;;;;;;5039280;28;20184;-76
2022/03/13 01:51:31;;;;;;;9.13;6.70;;;;;;;;;;5036401;28;20286;-75
2022/03/13 01:53:57;;;;;;;10.50;6.57;;;;;;;;;;5039764;28;20422;-75
2022/03/13 01:56:23;;;;;;;8.37;6.90;;;;;;;;;;5039415;28;20501;-75
2022/03/13 01:58:49;;;;;;;8.03;6.80;;;;;;;;;;5039144;28;20477;-75
2022/03/13 02:01:16;;;;;;;9.50;6.27;;;;;;;;;;5043906;28;20259;-76
2022/03/13 02:03:41;;;;;;;10.50;6.83;;;;;;;;;;5041255;28;20524;-76
2022/03/13 02:06:06;;;;;;;8.03;6.83;;;;;;;;;;5043183;28;20508;-76
2022/03/13 02:08:34;;;;;;;7.77;6.60;;;;;;;;;;5044989;28;20730;-76
2022/03/13 02:10:59;;;;;;;7.70;6.90;;;;;;;;;;5042307;28;20619;-76
2022/03/13 02:13:25;;;;;;;9.00;7.10;;;;;;;;;;5044816;28;20445;-76
2022/03/13 02:15:52;;;;;;;9.27;7.63;;;;;;;;;;5037270;28;20200;-76
2022/03/13 02:18:18;;;;;;;7.93;7.13;;;;;;;;;;5038296;28;20191;-76
2022/03/13 02:20:44;;;;;;;10.00;6.97;;;;;;;;;;5043846;28;20807;-76
2022/03/13 02:23:18;;;;;;;9.73;6.93;;;;;;;;;;5039263;28;20211;-76
2022/03/13 02:25:47;;;;;;;9.20;6.97;;;;;;;;;;5037152;28;20444;-76
2022/03/13 02:28:13;;;;;;;9.30;7.70;;;;;;;;;;5036653;28;21245;-76
2022/03/13 02:30:38;;;;;;;12.57;7.23;;;;;;;;;;5038559;28;20438;-76
2022/03/13 02:33:03;;;;;;;7.60;6.50;;;;;;;;;;5038139;28;20442;-76
2022/03/13 02:35:29;;;;;;;8.90;6.87;;;;;;;;;;5035331;28;20180;-76
2022/03/13 02:37:55;;;;;;;13.27;7.63;;;;;;;;;;5037929;28;20234;-76
2022/03/13 02:40:24;;;;;;;10.73;6.63;;;;;;;;;;5040424;28;21105;-76
2022/03/13 02:42:50;;;;;;;10.20;7.20;;;;;;;;;;5036057;28;21028;-76
2022/03/13 02:45:25;;;;;;;8.27;7.00;;;;;;;;;;5037191;28;20529;-76
2022/03/13 02:47:51;;;;;;;14.23;7.20;;;;;;;;;;5039405;28;20429;-76
2022/03/13 02:50:17;;;;;;;13.70;6.93;;;;;;;;;;5041848;28;20706;-75
2022/03/13 02:52:42;;;;;;;7.63;6.10;;;;;;;;;;5037769;28;20196;-76
2022/03/13 02:55:08;;;;;;;9.10;6.87;;;;;;;;;;5037782;28;20438;-76
2022/03/13 02:57:35;;;;;;;9.17;7.80;;;;;;;;;;5041905;28;20301;-76
2022/03/13 03:00:01;;;;;;;9.13;7.10;;;;;;;;;;5037232;28;20214;-76
2022/03/13 03:02:26;;;;;;;9.33;7.20;;;;;;;;;;5036227;28;20426;-76
2022/03/13 03:04:54;;;;;;;7.83;6.70;;;;;;;;;;5036627;28;20995;-76
2022/03/13 03:07:20;;;;;;;12.33;7.37;;;;;;;;;;5035610;22;20225;-80
2022/03/13 03:09:45;;;;;;;9.33;6.90;;;;;;;;;;4999039;28;20482;-80
2022/03/13 03:12:11;;;;;;;9.80;6.93;;;;;;;;;;4996338;28;20451;-81
2022/03/13 03:14:37;;;;;;;8.50;6.40;;;;;;;;;;4998535;28;20177;-80
2022/03/13 03:17:02;;;;;;;9.90;7.30;;;;;;;;;;4993748;28;20280;-80
2022/03/13 03:19:27;;;;;;;9.00;6.37;;;;;;;;;;4999871;28;20208;-80
2022/03/13 03:21:53;;;;;;;9.53;7.77;;;;;;;;;;5000074;28;20181;-79
2022/03/13 03:24:20;;;;;;;8.00;6.77;;;;;;;;;;4998958;28;20227;-80
2022/03/13 03:26:46;;;;;;;8.83;6.30;;;;;;;;;;4996761;28;20201;-80
2022/03/13 03:29:12;;;;;;;8.57;6.70;;;;;;;;;;4994192;28;22368;-80
2022/03/13 03:31:45;;;;;;;8.70;6.47;;;;;;;;;;4998278;28;20631;-81
2022/03/13 03:34:12;;;;;;;10.57;7.37;;;;;;;;;;4997224;28;20438;-80
2022/03/13 03:36:39;;;;;;;7.77;6.50;;;;;;;;;;4998671;28;20476;-80
2022/03/13 03:39:05;;;;;;;7.10;6.37;;;;;;;;;;4997024;28;20519;-80
2022/03/13 03:41:31;;;;;;;9.37;7.20;;;;;;;;;;4999126;28;20463;-81
2022/03/13 03:43:57;;;;;;;14.63;6.87;;;;;;;;;;4997692;28;20531;-81
2022/03/13 03:46:24;;;;;;;8.00;6.73;;;;;;;;;;4997653;28;20174;-80
2022/03/13 03:48:49;;;;;;;8.23;6.70;;;;;;;;;;4999083;28;20212;-80
2022/03/13 03:51:14;;;;;;;9.40;7.50;;;;;;;;;;4998865;28;20503;-80
2022/03/13 03:53:40;;;;;;;8.63;6.70;;;;;;;;;;4999278;28;20177;-80
2022/03/13 03:56:05;;;;;;;8.57;6.40;;;;;;;;;;4999583;28;20292;-81
2022/03/13 03:58:30;;;;;;;11.33;7.13;;;;;;;;;;5001325;28;20204;-81
2022/03/13 04:00:56;;;;;;;7.60;6.20;;;;;;;;;;4997524;28;20235;-80
2022/03/13 04:03:21;;;;;;;9.03;6.53;;;;;;;;;;4998304;28;20204;-80
2022/03/13 04:05:47;;;;;;;7.00;6.30;;;;;;;;;;4996983;28;20192;-80
2022/03/13 04:08:12;;;;;;;7.30;6.03;;;;;;;;;;4998901;28;20278;-80
2022/03/13 04:10:38;;;;;;;11.07;5.83;;;;;;;;;;4997797;28;20272;-80
2022/03/13 04:13:03;;;;;;;10.50;7.00;;;;;;;;;;4999825;28;20177;-80
2022/03/13 04:15:29;;;;;;;9.97;5.90;;;;;;;;;;4995648;28;20424;-80
2022/03/13 04:17:55;;;;;;;8.60;6.67;;;;;;;;;;4994528;28;20211;-80
2022/03/13 04:20:21;;;;;;;9.30;6.30;;;;;;;;;;4999377;28;20205;-81
2022/03/13 04:22:46;;;;;;;8.10;6.30;;;;;;;;;;5000948;28;20432;-80
2022/03/13 04:25:12;;;;;;;9.50;6.43;;;;;;;;;;4998229;28;20574;-79
2022/03/13 04:27:37;;;;;;;10.63;6.40;;;;;;;;;;5000896;28;20201;-79
2022/03/13 04:30:03;;;;;;;6.37;5.50;;;;;;;;;;4992314;28;21093;-79
2022/03/13 04:32:28;;;;;;;9.30;6.30;;;;;;;;;;5001728;28;20196;-80
2022/03/13 04:34:53;;;;;;;11.97;6.13;;;;;;;;;;4997499;28;20189;-80
2022/03/13 04:37:22;;;;;;;7.67;6.53;;;;;;;;;;4999212;28;20569;-81
2022/03/13 04:39:51;;;;;;;8.90;6.07;;;;;;;;;;4997681;28;20678;-79
2022/03/13 04:42:16;;;;;;;7.70;5.90;;;;;;;;;;4997687;28;20429;-80
2022/03/13 04:44:42;;;;;;;9.57;5.40;;;;;;;;;;4999135;28;20453;-79
2022/03/13 04:47:07;;;;;;;8.43;6.23;;;;;;;;;;4995255;28;20233;-79
2022/03/13 04:49:33;;;;;;;9.67;6.10;;;;;;;;;;4998880;28;20181;-79
2022/03/13 04:51:58;;;;;;;8.10;6.63;;;;;;;;;;5003489;28;20203;-80
2022/03/13 04:54:23;;;;;;;7.63;6.20;;;;;;;;;;4998602;28;20184;-80
2022/03/13 04:56:48;;;;;;;8.50;5.90;;;;;;;;;;4997515;28;20197;-80
2022/03/13 04:59:14;;;;;;;12.87;6.20;;;;;;;;;;5002304;28;20254;-80
2022/03/13 05:01:40;;;;;;;7.63;6.80;;;;;;;;;;4997742;28;20231;-79
2022/03/13 05:04:05;;;;;;;9.40;5.83;;;;;;;;;;5013824;28;20261;-80
2022/03/13 05:06:31;;;;;;;8.40;6.70;;;;;;;;;;4991476;28;20432;-80
2022/03/13 05:08:56;;;;;;;9.30;6.50;;;;;;;;;;4998153;28;20200;-80
2022/03/13 05:11:21;;;;;;;6.67;5.97;;;;;;;;;;4996634;28;20192;-80
2022/03/13 05:13:46;;;;;;;8.67;6.60;;;;;;;;;;4999789;28;20192;-80
2022/03/13 05:16:12;;;;;;;9.40;6.57;;;;;;;;;;4998027;28;20188;-80
2022/03/13 05:18:37;;;;;;;6.20;5.60;;;;;;;;;;4997593;28;20216;-80
2022/03/13 05:21:03;;;;;;;10.10;6.80;;;;;;;;;;4999336;28;20183;-79
2022/03/13 05:23:28;;;;;;;8.07;6.53;;;;;;;;;;5000714;28;20650;-79
2022/03/13 05:25:53;;;;;;;7.13;5.83;;;;;;;;;;4996003;28;20678;-80
2022/03/13 05:28:19;;;;;;;7.73;6.70;;;;;;;;;;4999533;28;20252;-80
2022/03/13 05:30:46;;;;;;;8.80;6.90;;;;;;;;;;4999696;28;20181;-79
2022/03/13 05:33:11;;;;;;;7.40;6.40;;;;;;;;;;4997113;28;20701;-79
2022/03/13 05:35:37;;;;;;;8.83;6.83;;;;;;;;;;4993887;28;20712;-80
2022/03/13 05:38:02;;;;;;;8.50;6.47;;;;;;;;;;4997354;28;20738;-80
2022/03/13 05:40:28;;;;;;;8.40;6.00;;;;;;;;;;4996881;28;20299;-80
2022/03/13 05:42:59;;;;;;;8.30;5.83;;;;;;;;;;4995122;28;20761;-81
2022/03/13 05:45:25;;;;;;;10.30;6.90;;;;;;;;;;4996091;28;20544;-80
2022/03/13 05:47:59;;;;;;;9.43;6.20;;;;;;;;;;4987292;28;20472;-79
2022/03/13 05:50:25;;;;;;;11.00;6.17;;;;;;;;;;4992758;28;20467;-81
2022/03/13 05:52:54;;;;;;;6.77;5.70;;;;;;;;;;4994855;28;20456;-78
2022/03/13 05:55:20;;;;;;;9.20;6.13;;;;;;;;;;4995394;28;20471;-80
2022/03/13 05:57:46;;;;;;;8.20;6.37;;;;;;;;;;4998431;28;20456;-81
2022/03/13 06:00:12;;;;;;;8.03;6.20;;;;;;;;;;4998038;28;20517;-80
2022/03/13 06:02:39;;;;;;;8.07;6.27;;;;;;;;;;4994851;28;21186;-81
2022/03/13 06:05:05;;;;;;;6.43;5.70;;;;;;;;;;4995300;28;20471;-80
2022/03/13 06:07:30;;;;;;;8.50;6.43;;;;;;;;;;4999374;28;20464;-81
2022/03/13 06:09:56;;;;;;;7.80;5.73;;;;;;;;;;5000893;28;20276;-81
2022/03/13 06:12:22;;;;;;;7.80;6.30;;;;;;;;;;4999725;28;20254;-81
2022/03/13 06:14:47;;;;;;;9.63;6.27;;;;;;;;;;4998051;28;20443;-81
2022/03/13 06:17:13;;;;;;;7.93;5.87;;;;;;;;;;4999583;28;20209;-79
2022/03/13 06:19:42;;;;;;;7.13;6.13;;;;;;;;;;4999823;28;20213;-79
2022/03/13 06:22:08;;;;;;;8.93;5.77;;;;;;;;;;4996533;28;20332;-78
2022/03/13 06:24:34;;;;;;;9.87;6.30;;;;;;;;;;4998796;28;20558;-79
2022/03/13 06:27:00;;;;;;;6.70;6.00;;;;;;;;;;5012419;28;20197;-81
2022/03/13 06:29:25;;;;;;;5.53;4.87;;;;;;;;;;4998772;28;20871;-81
2022/03/13 06:31:52;;;;;;;7.40;5.47;;;;;;;;;;4998241;28;20268;-80
2022/03/13 06:34:18;;;;;;;8.40;6.20;;;;;;;;;;4997963;28;20215;-82
2022/03/13 06:36:44;;;;;;;7.13;5.70;;;;;;;;;;4996437;28;20838;-82
2022/03/13 06:39:09;;;;;;;9.83;7.07;;;;;;;;;;4995101;28;20515;-81
2022/03/13 06:41:36;;;;;;;8.27;6.10;;;;;;;;;;4999036;28;20432;-81
2022/03/13 06:44:01;;;;;;;6.87;6.20;;;;;;;;;;4996839;28;20185;-81
2022/03/13 06:46:26;;;;;;;7.53;5.93;;;;;;;;;;4998862;28;20835;-81
2022/03/13 06:48:52;;;;;;;9.90;6.87;;;;;;;;;;4994957;28;20180;-81
2022/03/13 06:51:17;;;;;;;10.03;5.97;;;;;;;;;;4999779;28;20277;-80
2022/03/13 06:53:42;;;;;;;9.30;7.07;;;;;;;;;;5000775;28;20188;-81
2022/03/13 06:56:08;;;;;;;8.40;6.70;;;;;;;;;;4998851;28;20189;-79
2022/03/13 06:58:33;;;;;;;8.07;6.40;;;;;;;;;;5000135;28;20303;-80
2022/03/13 07:00:58;;;;;;;7.50;6.30;;;;;;;;;;5000719;28;20184;-80
2022/03/13 07:03:24;;;;;;;6.33;5.57;;;;;;;;;;5000266;28;20212;-81
2022/03/13 07:05:49;;;;;;;8.27;6.50;;;;;;;;;;4995855;28;20256;-81
2022/03/13 07:08:15;;;;;;;6.60;5.00;;;;;;;;;;5000187;28;20219;-80
2022/03/13 07:10:40;;;;;;;7.20;6.17;;;;;;;;;;4998386;28;20189;-80
2022/03/13 07:13:05;;;;;;;8.30;6.13;;;;;;;;;;5000176;28;20450;-80
2022/03/13 07:15:31;;;;;;;8.77;6.23;;;;;;;;;;4999330;28;20185;-80
2022/03/13 07:17:57;;;;;;;6.93;5.83;;;;;;;;;;4996060;28;20204;-80
2022/03/13 07:20:23;;;;;;;9.47;6.40;;;;;;;;;;5000325;28;20496;-80
2022/03/13 07:22:48;;;;;;;8.80;5.97;;;;;;;;;;5002367;28;20260;-81
2022/03/13 07:25:14;;;;;;;12.40;6.30;;;;;;;;;;4999646;28;20231;-79
2022/03/13 07:27:40;;;;;;;8.40;6.37;;;;;;;;;;4999048;28;20604;-80
2022/03/13 07:30:06;;;;;;;8.53;5.80;;;;;;;;;;5002254;28;20609;-80
2022/03/13 07:32:32;;;;;;;10.03;6.23;;;;;;;;;;5003335;28;20428;-80
2022/03/13 07:34:57;;;;;;;10.20;6.53;;;;;;;;;;5000558;28;20892;-79
2022/03/13 07:37:22;;;;;;;8.83;6.47;;;;;;;;;;5001669;28;20209;-79
2022/03/13 07:39:48;;;;;;;7.70;6.60;;;;;;;;;;5002554;28;20200;-79
2022/03/13 07:42:14;;;;;;;9.10;7.20;;;;;;;;;;4999911;28;20260;-74
2022/03/13 07:44:39;;;;;;;8.73;6.77;;;;;;;;;;5002106;28;20185;-75
2022/03/13 07:47:04;;;;;;;8.10;6.70;;;;;;;;;;4999507;28;20456;-77
2022/03/13 07:49:30;;;;;;;10.00;6.90;;;;;;;;;;4998855;28;20235;-79
2022/03/13 07:51:56;;;;;;;9.00;6.77;;;;;;;;;;5001691;28;20681;-79
2022/03/13 07:54:21;;;;;;;9.67;6.67;;;;;;;;;;5003904;28;20552;-79
2022/03/13 07:56:47;;;;;;;9.90;6.17;;;;;;;;;;4998246;28;20513;-79
2022/03/13 07:59:12;;;;;;;7.77;6.97;;;;;;;;;;4999931;28;20987;-79
2022/03/13 08:01:37;;;;;;;7.90;6.30;;;;;;;;;;4991184;28;20861;-79
2022/03/13 08:04:05;;;;;;;10.83;6.47;;;;;;;;;;4995558;28;20244;-78
2022/03/13 08:06:37;;;;;;;9.40;6.80;;;;;;;;;;4994212;28;20224;-78
2022/03/13 08:09:03;;;;;;;9.73;6.93;;;;;;;;;;4995013;28;20527;-79
2022/03/13 08:11:28;;;;;;;7.53;6.10;;;;;;;;;;4996653;28;20435;-79
2022/03/13 08:13:54;;;;;;;7.87;6.30;;;;;;;;;;4998973;28;20459;-78
2022/03/13 08:16:19;;;;;;;6.60;5.90;;;;;;;;;;4994989;28;20218;-78
2022/03/13 08:18:44;;;;;;;7.77;6.20;;;;;;;;;;4990646;28;20263;-80
2022/03/13 08:21:10;;;;;;;7.07;6.07;;;;;;;;;;5002131;28;20178;-79
2022/03/13 08:23:35;;;;;;;7.60;6.80;;;;;;;;;;4992453;28;20751;-80
2022/03/13 08:26:00;;;;;;;9.73;6.93;;;;;;;;;;5001131;28;20177;-76
2022/03/13 08:28:25;;;;;;;8.60;6.47;;;;;;;;;;4999738;28;20212;-80
2022/03/13 08:30:51;;;;;;;8.70;6.90;;;;;;;;;;4998659;28;20177;-81
2022/03/13 08:33:16;;;;;;;8.30;7.07;;;;;;;;;;5006697;28;20188;-82
2022/03/13 08:35:41;;;;;;;9.10;6.50;;;;;;;;;;4995395;28;20243;-80
2022/03/13 08:38:07;;;;;;;11.13;7.07;;;;;;;;;;4991048;28;20204;-83
2022/03/13 08:40:32;;;;;;;12.23;7.40;;;;;;;;;;4992281;28;20210;-76
2022/03/13 08:42:57;;;;;;;7.57;6.10;;;;;;;;;;4994806;28;20193;-76
2022/03/13 08:45:23;;;;;;;10.10;6.67;;;;;;;;;;4991142;28;20888;-76
2022/03/13 08:47:49;;;;;;;8.70;6.90;;;;;;;;;;4993143;28;20227;-79
2022/03/13 08:50:15;;;;;;;9.27;6.53;;;;;;;;;;4994515;28;20435;-78
2022/03/13 08:52:41;;;;;;;7.20;6.40;;;;;;;;;;4991169;28;20699;-78
2022/03/13 08:55:08;;;;;;;9.27;6.17;;;;;;;;;;4996928;28;20863;-82
2022/03/13 08:57:34;;;;;;;10.00;7.30;;;;;;;;;;4996911;28;20862;-76
2022/03/13 08:59:59;;;;;;;7.90;6.77;;;;;;;;;;4992780;28;20456;-78
2022/03/13 09:02:24;;;;;;;9.77;7.30;;;;;;;;;;4999386;28;20228;-78
2022/03/13 09:04:50;;;;;;;10.37;7.80;;;;;;;;;;4990540;28;20607;-82
2022/03/13 09:07:15;;;;;;;7.27;6.03;;;;;;;;;;5003571;22;20204;-69
2022/03/13 09:09:41;;;;;;;9.93;7.40;;;;;;;;;;4987091;28;20201;-70
2022/03/13 09:12:07;;;;;;;8.77;6.33;;;;;;;;;;4992921;28;20677;-71
2022/03/13 09:14:34;;;;;;;9.00;7.10;;;;;;;;;;4988456;28;20215;-68
2022/03/13 09:17:00;;;;;;;9.50;6.80;;;;;;;;;;4991571;28;20189;-70
2022/03/13 09:19:25;;;;;;;9.23;7.23;;;;;;;;;;4983610;28;20472;-69
2022/03/13 09:21:51;;;;;;;10.60;7.57;;;;;;;;;;4998234;28;20181;-69
2022/03/13 09:24:16;;;;;;;8.00;6.77;;;;;;;;;;4998227;28;20188;-69
2022/03/13 09:26:43;;;;;;;9.60;6.73;;;;;;;;;;4995854;28;20197;-69
2022/03/13 09:29:08;;;;;;;9.70;6.93;;;;;;;;;;4996744;28;20701;-69
2022/03/13 09:31:34;;;;;;;9.60;7.00;;;;;;;;;;4995945;28;20428;-71
2022/03/13 09:33:59;;;;;;;9.83;7.57;;;;;;;;;;5000273;28;20170;-70
2022/03/13 09:36:25;;;;;;;10.50;7.43;;;;;;;;;;4993889;28;20174;-70
2022/03/13 09:38:50;;;;;;;7.67;6.27;;;;;;;;;;4995806;28;20211;-70
2022/03/13 09:41:16;;;;;;;8.37;7.03;;;;;;;;;;4992025;28;20177;-70
2022/03/13 09:43:41;;;;;;;13.23;7.43;;;;;;;;;;4988366;28;21000;-68
2022/03/13 09:46:07;;;;;;;7.17;6.40;;;;;;;;;;4987340;28;20176;-69
2022/03/13 09:48:35;;;;;;;9.20;7.70;;;;;;;;;;4986743;28;20223;-69
2022/03/13 09:51:04;;;;;;;10.50;7.80;;;;;;;;;;4982644;28;20209;-69
2022/03/13 09:53:33;;;;;;;10.87;7.27;;;;;;;;;;4986015;28;20501;-69
2022/03/13 09:56:01;;;;;;;11.70;7.37;;;;;;;;;;4987267;28;20965;-70
2022/03/13 09:58:27;;;;;;;7.43;6.40;;;;;;;;;;4995421;28;20460;-69
2022/03/13 10:00:52;;;;;;;11.13;7.17;;;;;;;;;;4995952;28;20437;-68
2022/03/13 10:03:18;;;;;;;9.20;7.53;;;;;;;;;;4996163;28;20189;-69
2022/03/13 10:05:44;;;;;;;9.93;7.40;;;;;;;;;;4987104;28;20189;-68
2022/03/13 10:08:10;;;;;;;11.50;7.70;;;;;;;;;;4998940;28;20567;-68
2022/03/13 10:11:04;;;;;;;9.73;7.17;;;;;;;;;;4987434;28;20560;-68
2022/03/13 10:13:32;;;;;;;9.73;7.00;;;;;;;;;;4990302;28;20188;-68
2022/03/13 10:15:58;;;;;;;9.70;7.57;;;;;;;;;;4994061;28;20860;-68
2022/03/13 10:18:25;;;;;;;9.30;7.40;;;;;;;;;;4990835;28;20566;-69
2022/03/13 10:20:51;;;;;;;9.70;8.03;;;;;;;;;;4992472;28;20173;-69
2022/03/13 10:23:19;;;;;;;8.70;7.37;;;;;;;;;;4990389;28;20450;-71
2022/03/13 10:25:46;;;;;;;9.60;7.50;;;;;;;;;;4988024;28;20436;-70
2022/03/13 10:28:13;;;;;;;9.77;7.40;;;;;;;;;;4989636;28;20506;-70
2022/03/13 10:30:38;;;;;;;10.03;7.10;;;;;;;;;;4991051;28;20436;-69
2022/03/13 10:33:05;;;;;;;8.27;6.87;;;;;;;;;;4996376;28;20443;-69
2022/03/13 10:35:31;;;;;;;10.50;7.73;;;;;;;;;;4992760;28;20195;-68
2022/03/13 10:37:56;;;;;;;8.53;7.63;;;;;;;;;;4992779;28;20917;-68
2022/03/13 10:40:22;;;;;;;9.97;7.40;;;;;;;;;;4995108;28;20232;-69
2022/03/13 10:42:50;;;;;;;7.87;6.90;;;;;;;;;;4995822;28;20181;-69
2022/03/13 10:45:36;;;;;;;9.10;7.80;;;;;;;;;;4990281;28;20761;-69
2022/03/13 10:48:16;;;;;;;11.77;7.60;;;;;;;;;;4993634;28;20455;-69
2022/03/13 10:50:44;;;;;;;8.60;7.27;;;;;;;;;;4994397;28;20569;-69
2022/03/13 10:53:10;;;;;;;10.27;7.63;;;;;;;;;;4997499;28;20503;-69
2022/03/13 10:55:36;;;;;;;9.70;7.77;;;;;;;;;;4998553;28;20435;-68
2022/03/13 10:58:01;;;;;;;11.80;8.23;;;;;;;;;;4994926;28;20533;-68
2022/03/13 11:00:27;;;;;;;8.47;7.40;;;;;;;;;;4996729;28;20932;-69
2022/03/13 11:02:54;;;;;;;10.17;7.87;;;;;;;;;;5001839;28;20193;-69
2022/03/13 11:05:20;;;;;;;9.97;7.07;;;;;;;;;;4997371;28;20444;-69
2022/03/13 11:07:45;;;;;;;11.13;7.43;;;;;;;;;;5005409;28;20486;-68
2022/03/13 11:10:11;;;;;;;10.90;8.10;;;;;;;;;;5000658;28;20272;-69
2022/03/13 11:12:39;;;;;;;8.50;7.60;;;;;;;;;;5001654;28;20582;-68
2022/03/13 11:15:06;;;;;;;8.47;7.60;;;;;;;;;;5005378;28;20325;-69
2022/03/13 11:17:32;;;;;;;8.03;7.23;;;;;;;;;;5003289;28;20551;-69
2022/03/13 11:19:59;;;;;;;10.60;8.13;;;;;;;;;;5004589;28;20558;-69
2022/03/13 11:22:25;;;;;;;10.30;7.83;;;;;;;;;;5004659;28;20412;-68
2022/03/13 11:24:52;;;;;;;10.40;7.73;;;;;;;;;;5005724;28;20455;-68
2022/03/13 11:27:18;;;;;;;10.77;8.30;;;;;;;;;;5002952;28;20459;-69
2022/03/13 11:29:45;;;;;;;10.10;7.77;;;;;;;;;;4999149;28;20440;-69
2022/03/13 11:32:29;;;;;;;8.30;6.77;;;;;;;;;;5003224;28;20829;-69
2022/03/13 11:35:10;;;;;;;9.07;7.07;;;;;;;;;;5002431;28;20419;-68
2022/03/13 11:37:35;;;;;;;9.50;7.97;;;;;;;;;;5003211;28;20456;-69
2022/03/13 11:40:00;;;;;;;8.87;7.20;;;;;;;;;;5003538;28;20999;-69
2022/03/13 11:42:26;;;;;;;8.53;7.20;;;;;;;;;;4999131;28;20177;-69
2022/03/13 11:44:51;;;;;;;8.40;6.80;;;;;;;;;;5000138;28;20214;-69
2022/03/13 11:47:22;;;;;;;10.73;7.83;;;;;;;;;;5004168;28;20251;-69
2022/03/13 11:49:47;;;;;;;9.90;7.30;;;;;;;;;;4999934;28;20187;-69
2022/03/13 11:52:12;;;;;;;8.83;7.07;;;;;;;;;;5018342;28;20436;-69
2022/03/13 11:54:53;;;;;;;10.00;7.80;;;;;;;;;;5004280;28;20264;-69
2022/03/13 11:57:38;;;;;;;7.87;6.87;;;;;;;;;;5003702;28;20205;-69
2022/03/13 12:00:12;;;;;;;8.70;7.10;;;;;;;;;;4994428;28;20474;-69
2022/03/13 12:02:41;;;;;;;10.77;8.23;;;;;;;;;;5001113;28;20431;-69
2022/03/13 12:05:25;;;;;;;9.00;8.03;;;;;;;;;;5001404;28;20428;-69
2022/03/13 12:07:53;;;;;;;9.67;7.50;;;;;;;;;;4999398;28;20479;-69
2022/03/13 12:10:37;;;;;;;9.00;7.30;;;;;;;;;;4999066;28;20468;-69
2022/03/13 12:13:03;;;;;;;7.70;6.90;;;;;;;;;;5001220;28;20439;-69
2022/03/13 12:15:29;;;;;;;8.93;6.70;;;;;;;;;;5001197;28;20440;-68
2022/03/13 12:17:56;;;;;;;8.50;7.33;;;;;;;;;;5002759;28;20499;-68
2022/03/13 12:20:24;;;;;;;10.33;7.40;;;;;;;;;;4998418;28;20205;-68
2022/03/13 12:22:53;;;;;;;10.57;8.07;;;;;;;;;;5002602;28;20462;-68
2022/03/13 12:25:21;;;;;;;7.77;6.57;;;;;;;;;;4998813;28;20919;-69
2022/03/13 12:27:46;;;;;;;11.43;7.87;;;;;;;;;;5000539;28;20542;-68
2022/03/13 12:30:12;;;;;;;12.73;7.70;;;;;;;;;;5000641;28;20444;-68
2022/03/13 12:32:37;;;;;;;7.90;7.07;;;;;;;;;;5003440;28;20231;-68
2022/03/13 12:35:03;;;;;;;10.80;7.83;;;;;;;;;;5000958;28;20239;-68
2022/03/13 12:37:29;;;;;;;11.33;7.00;;;;;;;;;;4989542;28;20201;-68
2022/03/13 12:39:57;;;;;;;10.90;7.30;;;;;;;;;;4988671;28;20814;-67
2022/03/13 12:42:24;;;;;;;11.20;6.70;;;;;;;;;;4988266;28;20174;-67
2022/03/13 12:45:00;;;;;;;10.10;8.17;;;;;;;;;;4996841;28;20425;-67
2022/03/13 12:47:27;;;;;;;9.03;6.83;;;;;;;;;;4994533;28;20456;-67
2022/03/13 12:49:56;;;;;;;8.20;6.93;;;;;;;;;;4995206;28;20946;-68
2022/03/13 12:52:21;;;;;;;8.20;7.33;;;;;;;;;;5000007;28;20423;-68
2022/03/13 12:54:47;;;;;;;12.07;8.03;;;;;;;;;;4993095;28;20435;-66
2022/03/13 12:57:12;;;;;;;11.87;7.33;;;;;;;;;;5008018;22;20565;-68
2022/03/13 12:59:40;;;;;;;10.57;6.80;;;;;;;;;;5009569;28;20877;-66
2022/03/13 13:02:16;;;;;;;9.83;8.03;;;;;;;;;;5013275;28;20173;-67
2022/03/13 13:05:00;;;;;;;8.30;6.93;;;;;;;;;;5008495;28;21177;-65
2022/03/13 13:07:27;;;;;;;8.70;6.90;;;;;;;;;;5009071;28;21286;-64
2022/03/13 13:09:52;;;;;;;8.10;6.27;;;;;;;;;;4972279;28;20439;-66
2022/03/13 13:12:19;;;;;;;7.53;6.73;;;;;;;;;;4995171;28;20448;-65
2022/03/13 13:14:45;;;;;;;8.90;7.70;;;;;;;;;;4994503;28;20244;-65
2022/03/13 13:17:11;;;;;;;11.20;6.97;;;;;;;;;;5012588;28;20955;-65
2022/03/13 13:19:41;;;;;;;10.00;8.37;;;;;;;;;;4994073;28;20267;-65
2022/03/13 13:22:07;;;;;;;9.40;7.40;;;;;;;;;;4991141;28;20432;-65
2022/03/13 13:24:35;;;;;;;10.27;7.10;;;;;;;;;;4991542;28;21161;-65
2022/03/13 13:27:04;;;;;;;9.50;7.00;;;;;;;;;;4991632;28;20952;-65
2022/03/13 13:29:39;;;;;;;8.83;7.00;;;;;;;;;;5002617;28;20424;-66
2022/03/13 13:32:21;;;;;;;9.53;8.10;;;;;;;;;;5001840;28;20498;-65
2022/03/13 13:35:05;;;;;;;10.50;7.40;;;;;;;;;;5000261;28;20802;-65
2022/03/13 13:37:30;;;;;;;8.17;7.17;;;;;;;;;;5001560;28;21138;-65
2022/03/13 13:40:11;;;;;;;9.17;7.73;;;;;;;;;;5000850;28;20463;-65
2022/03/13 13:42:37;;;;;;;11.00;7.10;;;;;;;;;;4997182;28;20169;-67
2022/03/13 13:45:22;;;;;;;10.47;7.73;;;;;;;;;;5001048;28;20851;-66
2022/03/13 13:47:49;;;;;;;10.17;7.80;;;;;;;;;;5000524;28;20483;-66
2022/03/13 13:50:15;;;;;;;12.43;7.73;;;;;;;;;;5000700;28;20431;-66
2022/03/13 13:52:41;;;;;;;8.00;7.20;;;;;;;;;;4997660;28;20452;-66
2022/03/13 13:55:21;;;;;;;12.00;7.80;;;;;;;;;;4988737;28;20436;-65
2022/03/13 13:57:47;;;;;;;9.23;7.90;;;;;;;;;;4998697;28;20275;-67
2022/03/13 14:00:28;;;;;;;10.53;7.70;;;;;;;;;;4994626;28;21099;-67
2022/03/13 14:02:53;;;;;;;11.43;7.87;;;;;;;;;;4995229;28;20847;-67
2022/03/13 14:05:19;;;;;;;9.73;7.53;;;;;;;;;;4992326;28;20445;-68
2022/03/13 14:07:44;;;;;;;10.80;6.47;;;;;;;;;;4993600;28;20197;-65
2022/03/13 14:10:11;;;;;;;7.70;6.40;;;;;;;;;;4996965;28;20274;-65
2022/03/13 14:12:37;;;;;;;7.07;6.37;;;;;;;;;;4982937;28;20259;-66
2022/03/13 14:15:02;;;;;;;7.17;6.43;;;;;;;;;;4989928;28;20826;-66
2022/03/13 14:17:30;;;;;;;13.23;6.73;;;;;;;;;;4994535;28;20213;-66
2022/03/13 14:19:55;;;;;;;8.90;7.07;;;;;;;;;;4990601;28;20200;-66
2022/03/13 14:22:20;;;;;;;8.30;6.40;;;;;;;;;;4995070;28;20547;-66
2022/03/13 14:24:46;;;;;;;10.00;6.40;;;;;;;;;;4989190;28;20184;-67
2022/03/13 14:27:11;;;;;;;9.20;6.70;;;;;;;;;;4993514;28;20276;-65
2022/03/13 14:29:36;;;;;;;7.27;6.47;;;;;;;;;;4996272;28;20182;-65
2022/03/13 14:32:02;;;;;;;8.67;6.83;;;;;;;;;;4995318;28;20181;-66
2022/03/13 14:34:27;;;;;;;7.70;6.90;;;;;;;;;;4996010;28;20181;-65
2022/03/13 14:36:58;;;;;;;7.20;6.23;;;;;;;;;;4992752;28;20934;-66